sensor_id;sensor_type;location;lat;lon;timestamp;temperature;humidity
25112;DHT22;13092;51.996;4.458;2023-03-08T00:01:29;2.40;99.90
25112;DHT22;13092;51.996;4.458;2023-03-08T00:03:58;2.40;99.90
25112;DHT22;13092;51.996;4.458;2023-03-08T00:06:28;2.40;99.90
25112;DHT22;13092;51.996;4.458;2023-03-08T00:08:57;2.40;99.90
25112;DHT22;13092;51.996;4.458;2023-03-08T00:11:27;2.40;99.90
25112;DHT22;13092;51.996;4.458;2023-03-08T00:13:55;2.40;99.90
25112;DHT22;13092;51.996;4.458;2023-03-08T00:16:23;2.30;99.90
25112;DHT22;13092;51.996;4.458;2023-03-08T00:18:51;2.30;99.90
25112;DHT22;13092;51.996;4.458;2023-03-08T00:21:21;2.30;99.90
25112;DHT22;13092;51.996;4.458;2023-03-08T00:23:52;2.30;99.90
25112;DHT22;13092;51.996;4.458;2023-03-08T00:26:21;2.30;99.90
25112;DHT22;13092;51.996;4.458;2023-03-08T00:28:49;2.20;99.90
25112;DHT22;13092;51.996;4.458;2023-03-08T00:31:19;2.20;99.90
25112;DHT22;13092;51.996;4.458;2023-03-08T00:33:48;2.20;99.90
25112;DHT22;13092;51.996;4.458;2023-03-08T00:36:19;2.20;99.90
25112;DHT22;13092;51.996;4.458;2023-03-08T00:38:47;2.20;99.90
25112;DHT22;13092;51.996;4.458;2023-03-08T00:41:18;2.20;99.90
25112;DHT22;13092;51.996;4.458;2023-03-08T00:43:46;2.10;99.90
25112;DHT22;13092;51.996;4.458;2023-03-08T00:46:15;2.20;99.90
25112;DHT22;13092;51.996;4.458;2023-03-08T00:48:44;2.00;99.90
25112;DHT22;13092;51.996;4.458;2023-03-08T00:51:14;2.20;99.90
25112;DHT22;13092;51.996;4.458;2023-03-08T00:53:42;2.20;99.90
25112;DHT22;13092;51.996;4.458;2023-03-08T00:56:11;2.20;99.90
25112;DHT22;13092;51.996;4.458;2023-03-08T00:58:41;2.20;99.90
25112;DHT22;13092;51.996;4.458;2023-03-08T01:01:13;2.20;99.90
25112;DHT22;13092;51.996;4.458;2023-03-08T01:03:41;2.20;99.90
25112;DHT22;13092;51.996;4.458;2023-03-08T01:06:12;2.10;99.90
25112;DHT22;13092;51.996;4.458;2023-03-08T01:08:40;2.10;99.90
25112;DHT22;13092;51.996;4.458;2023-03-08T01:11:14;2.10;99.90
25112;DHT22;13092;51.996;4.458;2023-03-08T01:13:44;1.90;99.90
25112;DHT22;13092;51.996;4.458;2023-03-08T01:16:17;2.00;99.90
25112;DHT22;13092;51.996;4.458;2023-03-08T01:18:46;1.90;99.90
25112;DHT22;13092;51.996;4.458;2023-03-08T01:21:14;2.00;99.90
25112;DHT22;13092;51.996;4.458;2023-03-08T01:23:43;2.00;99.90
25112;DHT22;13092;51.996;4.458;2023-03-08T01:26:13;2.00;99.90
25112;DHT22;13092;51.996;4.458;2023-03-08T01:28:43;2.00;99.90
25112;DHT22;13092;51.996;4.458;2023-03-08T01:31:16;2.00;99.90
25112;DHT22;13092;51.996;4.458;2023-03-08T01:33:46;1.90;99.90
25112;DHT22;13092;51.996;4.458;2023-03-08T01:36:19;1.90;99.90
25112;DHT22;13092;51.996;4.458;2023-03-08T01:38:47;2.00;99.90
25112;DHT22;13092;51.996;4.458;2023-03-08T01:41:17;1.90;99.90
25112;DHT22;13092;51.996;4.458;2023-03-08T01:43:48;1.90;99.90
25112;DHT22;13092;51.996;4.458;2023-03-08T01:46:21;1.90;99.90
25112;DHT22;13092;51.996;4.458;2023-03-08T01:48:52;1.90;99.90
25112;DHT22;13092;51.996;4.458;2023-03-08T01:51:27;1.70;99.90
25112;DHT22;13092;51.996;4.458;2023-03-08T01:53:58;1.60;99.90
25112;DHT22;13092;51.996;4.458;2023-03-08T01:56:28;1.50;99.90
25112;DHT22;13092;51.996;4.458;2023-03-08T01:58:59;1.60;99.90
25112;DHT22;13092;51.996;4.458;2023-03-08T02:01:28;1.60;99.90
25112;DHT22;13092;51.996;4.458;2023-03-08T02:03:56;1.60;99.90
25112;DHT22;13092;51.996;4.458;2023-03-08T02:06:25;1.70;99.90
25112;DHT22;13092;51.996;4.458;2023-03-08T02:08:57;1.80;99.90
25112;DHT22;13092;51.996;4.458;2023-03-08T02:11:30;1.90;99.90
25112;DHT22;13092;51.996;4.458;2023-03-08T02:14:02;1.90;99.90
25112;DHT22;13092;51.996;4.458;2023-03-08T02:16:30;2.00;99.90
25112;DHT22;13092;51.996;4.458;2023-03-08T02:19:00;2.00;99.90
25112;DHT22;13092;51.996;4.458;2023-03-08T02:21:30;2.10;99.90
25112;DHT22;13092;51.996;4.458;2023-03-08T02:24:04;2.10;99.90
25112;DHT22;13092;51.996;4.458;2023-03-08T02:26:35;2.10;99.90
25112;DHT22;13092;51.996;4.458;2023-03-08T02:29:03;2.00;99.90
25112;DHT22;13092;51.996;4.458;2023-03-08T02:31:31;2.10;99.90
25112;DHT22;13092;51.996;4.458;2023-03-08T02:34:00;2.00;99.90
25112;DHT22;13092;51.996;4.458;2023-03-08T02:36:28;2.00;99.90
25112;DHT22;13092;51.996;4.458;2023-03-08T02:38:57;2.10;99.90
25112;DHT22;13092;51.996;4.458;2023-03-08T02:41:27;2.20;99.90
25112;DHT22;13092;51.996;4.458;2023-03-08T02:43:56;2.10;99.90
25112;DHT22;13092;51.996;4.458;2023-03-08T02:46:25;2.10;99.90
25112;DHT22;13092;51.996;4.458;2023-03-08T02:48:54;2.20;99.90
25112;DHT22;13092;51.996;4.458;2023-03-08T02:51:26;2.30;99.90
25112;DHT22;13092;51.996;4.458;2023-03-08T02:53:56;2.10;99.90
25112;DHT22;13092;51.996;4.458;2023-03-08T02:56:24;2.20;99.90
25112;DHT22;13092;51.996;4.458;2023-03-08T02:58:54;2.20;99.90
25112;DHT22;13092;51.996;4.458;2023-03-08T03:01:23;2.20;99.90
25112;DHT22;13092;51.996;4.458;2023-03-08T03:03:53;2.20;99.90
25112;DHT22;13092;51.996;4.458;2023-03-08T03:06:24;2.20;99.90
25112;DHT22;13092;51.996;4.458;2023-03-08T03:08:54;2.20;99.90
25112;DHT22;13092;51.996;4.458;2023-03-08T03:11:23;2.20;99.90
25112;DHT22;13092;51.996;4.458;2023-03-08T03:13:56;2.00;99.90
25112;DHT22;13092;51.996;4.458;2023-03-08T03:16:25;2.20;99.90
25112;DHT22;13092;51.996;4.458;2023-03-08T03:18:55;2.20;99.90
25112;DHT22;13092;51.996;4.458;2023-03-08T03:21:37;2.20;99.90
25112;DHT22;13092;51.996;4.458;2023-03-08T03:24:10;2.20;99.90
25112;DHT22;13092;51.996;4.458;2023-03-08T03:26:50;2.10;99.90
25112;DHT22;13092;51.996;4.458;2023-03-08T03:29:20;2.30;99.90
25112;DHT22;13092;51.996;4.458;2023-03-08T03:41:29;1.90;99.90
25112;DHT22;13092;51.996;4.458;2023-03-08T03:43:58;2.00;99.90
25112;DHT22;13092;51.996;4.458;2023-03-08T03:46:28;2.00;99.90
25112;DHT22;13092;51.996;4.458;2023-03-08T03:48:57;2.20;99.90
25112;DHT22;13092;51.996;4.458;2023-03-08T03:51:25;2.10;99.90
25112;DHT22;13092;51.996;4.458;2023-03-08T03:53:54;2.30;99.90
25112;DHT22;13092;51.996;4.458;2023-03-08T03:56:25;2.00;99.90
25112;DHT22;13092;51.996;4.458;2023-03-08T03:58:57;2.20;99.90
25112;DHT22;13092;51.996;4.458;2023-03-08T04:01:46;2.10;99.90
25112;DHT22;13092;51.996;4.458;2023-03-08T04:51:45;2.20;99.90
25112;DHT22;13092;51.996;4.458;2023-03-08T04:54:13;2.30;99.90
25112;DHT22;13092;51.996;4.458;2023-03-08T04:56:42;2.30;99.90
25112;DHT22;13092;51.996;4.458;2023-03-08T04:59:10;2.30;99.90
25112;DHT22;13092;51.996;4.458;2023-03-08T05:01:39;2.20;99.90
25112;DHT22;13092;51.996;4.458;2023-03-08T05:04:11;2.10;99.90
25112;DHT22;13092;51.996;4.458;2023-03-08T05:06:39;2.20;99.90
25112;DHT22;13092;51.996;4.458;2023-03-08T05:09:10;2.20;99.90
25112;DHT22;13092;51.996;4.458;2023-03-08T05:11:39;1.90;99.90
25112;DHT22;13092;51.996;4.458;2023-03-08T05:14:08;1.90;99.90
25112;DHT22;13092;51.996;4.458;2023-03-08T05:16:37;2.00;99.90
25112;DHT22;13092;51.996;4.458;2023-03-08T05:19:06;2.10;99.90
25112;DHT22;13092;51.996;4.458;2023-03-08T05:21:38;1.90;99.90
25112;DHT22;13092;51.996;4.458;2023-03-08T05:24:07;1.90;99.90
25112;DHT22;13092;51.996;4.458;2023-03-08T05:26:38;1.80;99.90
25112;DHT22;13092;51.996;4.458;2023-03-08T05:29:08;1.70;99.90
25112;DHT22;13092;51.996;4.458;2023-03-08T05:31:37;1.70;99.90
25112;DHT22;13092;51.996;4.458;2023-03-08T05:34:13;1.70;99.90
25112;DHT22;13092;51.996;4.458;2023-03-08T05:36:44;1.70;99.90
25112;DHT22;13092;51.996;4.458;2023-03-08T05:45:37;1.70;99.90
25112;DHT22;13092;51.996;4.458;2023-03-08T05:48:05;1.70;99.90
25112;DHT22;13092;51.996;4.458;2023-03-08T05:50:35;1.70;99.90
25112;DHT22;13092;51.996;4.458;2023-03-08T05:53:03;1.70;99.90
25112;DHT22;13092;51.996;4.458;2023-03-08T05:55:31;1.70;99.90
25112;DHT22;13092;51.996;4.458;2023-03-08T05:57:59;1.80;99.90
25112;DHT22;13092;51.996;4.458;2023-03-08T06:00:27;1.80;99.90
25112;DHT22;13092;51.996;4.458;2023-03-08T06:02:59;2.00;99.90
25112;DHT22;13092;51.996;4.458;2023-03-08T06:05:30;1.90;99.90
25112;DHT22;13092;51.996;4.458;2023-03-08T06:07:58;1.90;99.90
25112;DHT22;13092;51.996;4.458;2023-03-08T06:10:26;1.90;99.90
25112;DHT22;13092;51.996;4.458;2023-03-08T06:12:55;1.90;99.90
25112;DHT22;13092;51.996;4.458;2023-03-08T06:15:23;2.00;99.90
25112;DHT22;13092;51.996;4.458;2023-03-08T06:17:52;2.00;99.90
25112;DHT22;13092;51.996;4.458;2023-03-08T06:20:22;2.10;99.90
25112;DHT22;13092;51.996;4.458;2023-03-08T06:22:50;2.00;99.90
25112;DHT22;13092;51.996;4.458;2023-03-08T06:25:19;2.20;99.90
25112;DHT22;13092;51.996;4.458;2023-03-08T06:27:47;2.10;99.90
25112;DHT22;13092;51.996;4.458;2023-03-08T06:30:16;2.10;99.90
25112;DHT22;13092;51.996;4.458;2023-03-08T06:32:45;2.20;99.90
25112;DHT22;13092;51.996;4.458;2023-03-08T06:35:13;2.20;99.90
25112;DHT22;13092;51.996;4.458;2023-03-08T06:37:43;2.20;99.90
25112;DHT22;13092;51.996;4.458;2023-03-08T06:40:12;2.20;99.90
25112;DHT22;13092;51.996;4.458;2023-03-08T06:42:40;2.20;99.90
25112;DHT22;13092;51.996;4.458;2023-03-08T06:45:10;2.30;99.90
25112;DHT22;13092;51.996;4.458;2023-03-08T06:47:38;2.30;99.90
25112;DHT22;13092;51.996;4.458;2023-03-08T06:50:08;2.30;99.90
25112;DHT22;13092;51.996;4.458;2023-03-08T06:52:37;2.30;99.90
25112;DHT22;13092;51.996;4.458;2023-03-08T06:55:08;2.40;99.90
25112;DHT22;13092;51.996;4.458;2023-03-08T06:57:36;2.20;99.90
25112;DHT22;13092;51.996;4.458;2023-03-08T07:00:06;2.10;99.90
25112;DHT22;13092;51.996;4.458;2023-03-08T07:02:35;2.10;99.90
25112;DHT22;13092;51.996;4.458;2023-03-08T07:05:04;2.10;99.90
25112;DHT22;13092;51.996;4.458;2023-03-08T07:07:32;2.10;99.90
25112;DHT22;13092;51.996;4.458;2023-03-08T07:10:02;2.20;99.90
25112;DHT22;13092;51.996;4.458;2023-03-08T07:12:32;2.20;99.90
25112;DHT22;13092;51.996;4.458;2023-03-08T07:15:02;2.20;99.90
25112;DHT22;13092;51.996;4.458;2023-03-08T07:17:31;2.30;99.90
25112;DHT22;13092;51.996;4.458;2023-03-08T07:20:00;2.20;99.90
25112;DHT22;13092;51.996;4.458;2023-03-08T07:22:30;2.30;99.90
25112;DHT22;13092;51.996;4.458;2023-03-08T07:24:58;2.30;99.90
25112;DHT22;13092;51.996;4.458;2023-03-08T07:27:26;2.30;99.90
25112;DHT22;13092;51.996;4.458;2023-03-08T07:29:56;2.30;99.90
25112;DHT22;13092;51.996;4.458;2023-03-08T07:32:24;2.30;99.90
25112;DHT22;13092;51.996;4.458;2023-03-08T07:34:55;2.50;99.90
25112;DHT22;13092;51.996;4.458;2023-03-08T07:37:23;2.20;99.90
25112;DHT22;13092;51.996;4.458;2023-03-08T07:39:51;2.20;99.90
25112;DHT22;13092;51.996;4.458;2023-03-08T07:42:19;2.30;99.90
25112;DHT22;13092;51.996;4.458;2023-03-08T07:44:48;2.20;99.90
25112;DHT22;13092;51.996;4.458;2023-03-08T07:47:17;2.30;99.90
25112;DHT22;13092;51.996;4.458;2023-03-08T07:49:46;2.30;99.90
25112;DHT22;13092;51.996;4.458;2023-03-08T07:52:14;2.30;99.90
25112;DHT22;13092;51.996;4.458;2023-03-08T07:54:42;2.30;99.90
25112;DHT22;13092;51.996;4.458;2023-03-08T07:57:14;2.30;99.90
25112;DHT22;13092;51.996;4.458;2023-03-08T07:59:42;2.30;99.90
25112;DHT22;13092;51.996;4.458;2023-03-08T08:02:11;2.30;99.90
25112;DHT22;13092;51.996;4.458;2023-03-08T08:04:41;2.40;99.90
25112;DHT22;13092;51.996;4.458;2023-03-08T08:07:11;2.40;99.90
25112;DHT22;13092;51.996;4.458;2023-03-08T08:09:40;2.40;99.90
25112;DHT22;13092;51.996;4.458;2023-03-08T08:12:09;2.50;99.90
25112;DHT22;13092;51.996;4.458;2023-03-08T08:14:37;2.50;99.90
25112;DHT22;13092;51.996;4.458;2023-03-08T08:17:06;2.60;99.90
25112;DHT22;13092;51.996;4.458;2023-03-08T08:19:34;2.60;99.90
25112;DHT22;13092;51.996;4.458;2023-03-08T08:22:04;2.60;99.90
25112;DHT22;13092;51.996;4.458;2023-03-08T08:24:32;2.60;99.90
25112;DHT22;13092;51.996;4.458;2023-03-08T08:27:01;2.60;99.90
25112;DHT22;13092;51.996;4.458;2023-03-08T08:29:29;2.60;99.90
25112;DHT22;13092;51.996;4.458;2023-03-08T08:31:58;2.70;99.90
25112;DHT22;13092;51.996;4.458;2023-03-08T08:34:26;2.80;99.90
25112;DHT22;13092;51.996;4.458;2023-03-08T08:36:54;2.70;99.90
25112;DHT22;13092;51.996;4.458;2023-03-08T08:39:24;2.80;99.90
25112;DHT22;13092;51.996;4.458;2023-03-08T08:41:52;2.80;99.90
25112;DHT22;13092;51.996;4.458;2023-03-08T08:44:20;2.80;99.90
25112;DHT22;13092;51.996;4.458;2023-03-08T08:46:48;2.80;99.90
25112;DHT22;13092;51.996;4.458;2023-03-08T08:49:17;2.80;99.90
25112;DHT22;13092;51.996;4.458;2023-03-08T08:51:45;2.80;99.90
25112;DHT22;13092;51.996;4.458;2023-03-08T08:54:13;2.80;99.90
25112;DHT22;13092;51.996;4.458;2023-03-08T08:56:43;2.80;99.90
25112;DHT22;13092;51.996;4.458;2023-03-08T08:59:11;2.80;99.90
25112;DHT22;13092;51.996;4.458;2023-03-08T09:01:42;2.80;99.90
25112;DHT22;13092;51.996;4.458;2023-03-08T09:04:10;2.90;99.90
25112;DHT22;13092;51.996;4.458;2023-03-08T09:06:39;2.80;99.90
25112;DHT22;13092;51.996;4.458;2023-03-08T09:09:07;2.80;99.90
25112;DHT22;13092;51.996;4.458;2023-03-08T09:11:36;2.90;99.90
25112;DHT22;13092;51.996;4.458;2023-03-08T09:14:21;3.00;99.90
25112;DHT22;13092;51.996;4.458;2023-03-08T09:16:49;3.20;99.90
25112;DHT22;13092;51.996;4.458;2023-03-08T09:19:18;3.10;99.90
25112;DHT22;13092;51.996;4.458;2023-03-08T09:21:47;3.10;99.90
25112;DHT22;13092;51.996;4.458;2023-03-08T09:24:15;3.10;99.90
25112;DHT22;13092;51.996;4.458;2023-03-08T09:26:46;3.10;99.90
25112;DHT22;13092;51.996;4.458;2023-03-08T09:29:14;3.10;99.90
25112;DHT22;13092;51.996;4.458;2023-03-08T09:31:44;3.20;99.90
25112;DHT22;13092;51.996;4.458;2023-03-08T09:34:13;3.30;99.90
25112;DHT22;13092;51.996;4.458;2023-03-08T09:36:42;3.40;99.90
25112;DHT22;13092;51.996;4.458;2023-03-08T09:39:12;3.40;99.90
25112;DHT22;13092;51.996;4.458;2023-03-08T09:41:47;3.40;99.90
25112;DHT22;13092;51.996;4.458;2023-03-08T09:44:40;3.40;99.90
25112;DHT22;13092;51.996;4.458;2023-03-08T09:47:19;3.50;99.90
25112;DHT22;13092;51.996;4.458;2023-03-08T09:49:51;3.50;99.90
25112;DHT22;13092;51.996;4.458;2023-03-08T09:52:28;3.60;99.90
25112;DHT22;13092;51.996;4.458;2023-03-08T09:55:01;3.70;99.90
25112;DHT22;13092;51.996;4.458;2023-03-08T09:57:34;3.70;99.90
25112;DHT22;13092;51.996;4.458;2023-03-08T10:00:06;3.80;99.90
25112;DHT22;13092;51.996;4.458;2023-03-08T10:02:45;3.80;99.90
25112;DHT22;13092;51.996;4.458;2023-03-08T10:05:20;3.80;99.90
25112;DHT22;13092;51.996;4.458;2023-03-08T10:07:57;3.80;99.90
25112;DHT22;13092;51.996;4.458;2023-03-08T10:10:39;3.80;99.90
25112;DHT22;13092;51.996;4.458;2023-03-08T10:13:30;4.00;99.90
25112;DHT22;13092;51.996;4.458;2023-03-08T10:16:12;3.80;99.90
25112;DHT22;13092;51.996;4.458;2023-03-08T10:32:58;3.80;99.90
25112;DHT22;13092;51.996;4.458;2023-03-08T10:35:31;3.80;99.90
25112;DHT22;13092;51.996;4.458;2023-03-08T10:38:04;3.90;99.90
25112;DHT22;13092;51.996;4.458;2023-03-08T10:40:33;3.90;99.90
25112;DHT22;13092;51.996;4.458;2023-03-08T10:43:04;4.00;99.90
25112;DHT22;13092;51.996;4.458;2023-03-08T10:45:33;4.00;99.90
25112;DHT22;13092;51.996;4.458;2023-03-08T10:48:04;4.00;99.90
25112;DHT22;13092;51.996;4.458;2023-03-08T10:50:34;4.00;99.90
25112;DHT22;13092;51.996;4.458;2023-03-08T10:53:10;4.00;99.90
25112;DHT22;13092;51.996;4.458;2023-03-08T10:55:45;4.00;99.90
25112;DHT22;13092;51.996;4.458;2023-03-08T10:58:30;4.00;99.90
25112;DHT22;13092;51.996;4.458;2023-03-08T11:01:02;4.10;99.90
25112;DHT22;13092;51.996;4.458;2023-03-08T11:03:31;4.20;99.90
25112;DHT22;13092;51.996;4.458;2023-03-08T11:06:01;4.20;99.90
25112;DHT22;13092;51.996;4.458;2023-03-08T11:08:33;4.40;99.90
25112;DHT22;13092;51.996;4.458;2023-03-08T11:11:07;4.40;99.90
25112;DHT22;13092;51.996;4.458;2023-03-08T11:13:37;4.50;99.90
25112;DHT22;13092;51.996;4.458;2023-03-08T11:16:41;4.50;99.90
25112;DHT22;13092;51.996;4.458;2023-03-08T11:19:24;4.60;99.90
25112;DHT22;13092;51.996;4.458;2023-03-08T11:22:00;4.70;99.90
25112;DHT22;13092;51.996;4.458;2023-03-08T11:24:49;4.80;99.90
25112;DHT22;13092;51.996;4.458;2023-03-08T11:27:32;4.80;99.90
25112;DHT22;13092;51.996;4.458;2023-03-08T11:30:16;4.70;99.90
25112;DHT22;13092;51.996;4.458;2023-03-08T11:32:55;4.80;99.90
25112;DHT22;13092;51.996;4.458;2023-03-08T11:35:29;4.90;99.90
25112;DHT22;13092;51.996;4.458;2023-03-08T11:38:04;5.00;99.90
25112;DHT22;13092;51.996;4.458;2023-03-08T11:40:45;5.10;99.90
25112;DHT22;13092;51.996;4.458;2023-03-08T11:43:26;5.10;99.90
25112;DHT22;13092;51.996;4.458;2023-03-08T11:46:03;5.20;99.90
25112;DHT22;13092;51.996;4.458;2023-03-08T11:51:42;5.30;99.90
25112;DHT22;13092;51.996;4.458;2023-03-08T11:54:15;5.20;99.90
25112;DHT22;13092;51.996;4.458;2023-03-08T11:56:49;5.20;99.90
25112;DHT22;13092;51.996;4.458;2023-03-08T11:59:24;5.20;99.90
25112;DHT22;13092;51.996;4.458;2023-03-08T12:01:58;5.20;99.90
25112;DHT22;13092;51.996;4.458;2023-03-08T12:04:32;5.30;99.90
25112;DHT22;13092;51.996;4.458;2023-03-08T12:07:06;5.20;99.90
25112;DHT22;13092;51.996;4.458;2023-03-08T12:09:41;5.30;99.90
25112;DHT22;13092;51.996;4.458;2023-03-08T12:12:17;5.30;99.90
25112;DHT22;13092;51.996;4.458;2023-03-08T12:14:50;5.30;99.90
25112;DHT22;13092;51.996;4.458;2023-03-08T12:17:23;5.20;99.90
25112;DHT22;13092;51.996;4.458;2023-03-08T12:19:53;5.20;99.90
25112;DHT22;13092;51.996;4.458;2023-03-08T12:22:34;5.10;99.90
25112;DHT22;13092;51.996;4.458;2023-03-08T12:25:11;5.10;99.90
25112;DHT22;13092;51.996;4.458;2023-03-08T12:27:44;5.00;99.90
25112;DHT22;13092;51.996;4.458;2023-03-08T12:30:25;5.00;99.90
25112;DHT22;13092;51.996;4.458;2023-03-08T12:33:01;5.00;99.90
25112;DHT22;13092;51.996;4.458;2023-03-08T12:35:31;5.00;99.90
25112;DHT22;13092;51.996;4.458;2023-03-08T12:38:02;5.00;99.90
25112;DHT22;13092;51.996;4.458;2023-03-08T12:40:38;5.00;99.90
25112;DHT22;13092;51.996;4.458;2023-03-08T12:43:12;5.00;99.90
25112;DHT22;13092;51.996;4.458;2023-03-08T12:45:43;4.90;99.90
25112;DHT22;13092;51.996;4.458;2023-03-08T12:48:18;5.00;99.90
25112;DHT22;13092;51.996;4.458;2023-03-08T12:50:58;4.90;99.90
25112;DHT22;13092;51.996;4.458;2023-03-08T12:53:38;5.00;99.90
25112;DHT22;13092;51.996;4.458;2023-03-08T12:56:21;5.00;99.90
25112;DHT22;13092;51.996;4.458;2023-03-08T12:58:55;4.90;99.90
25112;DHT22;13092;51.996;4.458;2023-03-08T13:01:29;4.90;99.90
25112;DHT22;13092;51.996;4.458;2023-03-08T13:03:58;5.00;99.90
25112;DHT22;13092;51.996;4.458;2023-03-08T13:09:21;5.00;99.90
25112;DHT22;13092;51.996;4.458;2023-03-08T13:11:53;5.00;99.90
25112;DHT22;13092;51.996;4.458;2023-03-08T13:14:37;5.00;99.90
25112;DHT22;13092;51.996;4.458;2023-03-08T13:17:34;5.20;99.90
25112;DHT22;13092;51.996;4.458;2023-03-08T13:20:11;5.30;99.90
25112;DHT22;13092;51.996;4.458;2023-03-08T13:22:49;5.20;99.90
25112;DHT22;13092;51.996;4.458;2023-03-08T13:25:37;5.20;99.90
25112;DHT22;13092;51.996;4.458;2023-03-08T13:28:09;5.20;99.90
25112;DHT22;13092;51.996;4.458;2023-03-08T13:30:44;5.10;99.90
25112;DHT22;13092;51.996;4.458;2023-03-08T13:33:17;5.20;99.90
25112;DHT22;13092;51.996;4.458;2023-03-08T13:35:56;5.20;99.90
25112;DHT22;13092;51.996;4.458;2023-03-08T13:38:28;5.20;99.90
25112;DHT22;13092;51.996;4.458;2023-03-08T13:40:57;5.10;99.90
25112;DHT22;13092;51.996;4.458;2023-03-08T13:43:28;5.00;99.90
25112;DHT22;13092;51.996;4.458;2023-03-08T13:46:00;4.90;99.90
25112;DHT22;13092;51.996;4.458;2023-03-08T13:48:32;4.80;99.90
25112;DHT22;13092;51.996;4.458;2023-03-08T13:51:03;4.80;99.90
25112;DHT22;13092;51.996;4.458;2023-03-08T13:53:33;4.60;99.90
25112;DHT22;13092;51.996;4.458;2023-03-08T13:56:03;4.50;99.90
25112;DHT22;13092;51.996;4.458;2023-03-08T13:58:34;4.40;99.90
25112;DHT22;13092;51.996;4.458;2023-03-08T14:01:11;4.40;99.90
25112;DHT22;13092;51.996;4.458;2023-03-08T14:03:41;4.30;99.90
25112;DHT22;13092;51.996;4.458;2023-03-08T14:06:16;4.30;99.90
25112;DHT22;13092;51.996;4.458;2023-03-08T14:08:46;4.50;99.90
25112;DHT22;13092;51.996;4.458;2023-03-08T14:11:15;4.20;99.90
25112;DHT22;13092;51.996;4.458;2023-03-08T14:13:47;4.20;99.90
25112;DHT22;13092;51.996;4.458;2023-03-08T14:16:28;4.10;99.90
25112;DHT22;13092;51.996;4.458;2023-03-08T14:18:59;4.10;99.90
25112;DHT22;13092;51.996;4.458;2023-03-08T14:21:29;4.10;99.90
25112;DHT22;13092;51.996;4.458;2023-03-08T14:23:59;4.10;99.90
25112;DHT22;13092;51.996;4.458;2023-03-08T14:26:31;4.10;99.90
25112;DHT22;13092;51.996;4.458;2023-03-08T14:29:12;3.90;99.90
25112;DHT22;13092;51.996;4.458;2023-03-08T14:31:59;3.80;99.90
25112;DHT22;13092;51.996;4.458;2023-03-08T14:34:29;3.90;99.90
25112;DHT22;13092;51.996;4.458;2023-03-08T14:37:01;4.00;99.90
25112;DHT22;13092;51.996;4.458;2023-03-08T14:39:31;4.10;99.90
25112;DHT22;13092;51.996;4.458;2023-03-08T14:42:09;4.20;99.90
25112;DHT22;13092;51.996;4.458;2023-03-08T14:44:38;4.00;99.90
25112;DHT22;13092;51.996;4.458;2023-03-08T14:47:09;4.00;99.90
25112;DHT22;13092;51.996;4.458;2023-03-08T14:49:54;3.90;99.90
25112;DHT22;13092;51.996;4.458;2023-03-08T14:52:26;3.70;99.90
25112;DHT22;13092;51.996;4.458;2023-03-08T14:54:54;3.80;99.90
25112;DHT22;13092;51.996;4.458;2023-03-08T14:57:25;3.80;99.90
25112;DHT22;13092;51.996;4.458;2023-03-08T14:59:59;3.70;99.90
25112;DHT22;13092;51.996;4.458;2023-03-08T15:02:34;3.70;99.90
25112;DHT22;13092;51.996;4.458;2023-03-08T15:05:03;3.70;99.90
25112;DHT22;13092;51.996;4.458;2023-03-08T15:07:33;3.70;99.90
25112;DHT22;13092;51.996;4.458;2023-03-08T15:10:04;3.70;99.90
25112;DHT22;13092;51.996;4.458;2023-03-08T15:12:32;3.70;99.90
25112;DHT22;13092;51.996;4.458;2023-03-08T15:15:00;3.70;99.90
25112;DHT22;13092;51.996;4.458;2023-03-08T15:17:29;3.70;99.90
25112;DHT22;13092;51.996;4.458;2023-03-08T15:19:58;3.70;99.90
25112;DHT22;13092;51.996;4.458;2023-03-08T15:22:26;3.70;99.90
25112;DHT22;13092;51.996;4.458;2023-03-08T15:24:54;3.70;99.90
25112;DHT22;13092;51.996;4.458;2023-03-08T15:27:22;3.70;99.90
25112;DHT22;13092;51.996;4.458;2023-03-08T15:29:50;3.70;99.90
25112;DHT22;13092;51.996;4.458;2023-03-08T15:32:19;3.70;99.90
25112;DHT22;13092;51.996;4.458;2023-03-08T15:34:47;3.80;99.90
25112;DHT22;13092;51.996;4.458;2023-03-08T15:37:19;3.80;99.90
25112;DHT22;13092;51.996;4.458;2023-03-08T15:39:47;3.80;99.90
25112;DHT22;13092;51.996;4.458;2023-03-08T15:42:16;3.70;99.90
25112;DHT22;13092;51.996;4.458;2023-03-08T15:44:45;3.70;99.90
25112;DHT22;13092;51.996;4.458;2023-03-08T15:47:16;3.80;99.90
25112;DHT22;13092;51.996;4.458;2023-03-08T15:49:44;3.60;99.90
25112;DHT22;13092;51.996;4.458;2023-03-08T15:52:18;3.70;99.90
25112;DHT22;13092;51.996;4.458;2023-03-08T15:54:50;3.80;99.90
25112;DHT22;13092;51.996;4.458;2023-03-08T15:57:19;3.70;99.90
25112;DHT22;13092;51.996;4.458;2023-03-08T15:59:47;3.70;99.90
25112;DHT22;13092;51.996;4.458;2023-03-08T16:02:18;3.60;99.90
25112;DHT22;13092;51.996;4.458;2023-03-08T16:04:48;3.60;99.90
25112;DHT22;13092;51.996;4.458;2023-03-08T16:07:22;3.60;99.90
25112;DHT22;13092;51.996;4.458;2023-03-08T16:09:50;3.50;99.90
25112;DHT22;13092;51.996;4.458;2023-03-08T16:12:19;3.50;99.90
25112;DHT22;13092;51.996;4.458;2023-03-08T16:15:17;3.30;99.90
25112;DHT22;13092;51.996;4.458;2023-03-08T16:18:54;3.30;99.90
25112;DHT22;13092;51.996;4.458;2023-03-08T16:22:11;3.30;99.90
25112;DHT22;13092;51.996;4.458;2023-03-08T18:08:09;2.70;99.90
25112;DHT22;13092;51.996;4.458;2023-03-08T18:10:37;3.00;99.90
25112;DHT22;13092;51.996;4.458;2023-03-08T18:13:05;2.90;99.90
25112;DHT22;13092;51.996;4.458;2023-03-08T18:15:34;3.10;99.90
25112;DHT22;13092;51.996;4.458;2023-03-08T18:18:02;2.90;99.90
25112;DHT22;13092;51.996;4.458;2023-03-08T18:20:30;2.80;99.90
25112;DHT22;13092;51.996;4.458;2023-03-08T18:22:59;2.90;99.90
25112;DHT22;13092;51.996;4.458;2023-03-08T18:25:29;2.90;99.90
25112;DHT22;13092;51.996;4.458;2023-03-08T18:27:58;2.90;99.90
25112;DHT22;13092;51.996;4.458;2023-03-08T18:30:26;2.80;99.90
25112;DHT22;13092;51.996;4.458;2023-03-08T18:32:55;2.80;99.90
25112;DHT22;13092;51.996;4.458;2023-03-08T18:35:24;2.70;99.90
25112;DHT22;13092;51.996;4.458;2023-03-08T18:37:54;2.80;99.90
25112;DHT22;13092;51.996;4.458;2023-03-08T18:40:22;2.80;99.90
25112;DHT22;13092;51.996;4.458;2023-03-08T18:42:54;2.90;99.90
25112;DHT22;13092;51.996;4.458;2023-03-08T18:45:23;3.00;99.90
25112;DHT22;13092;51.996;4.458;2023-03-08T18:47:52;2.90;99.90
25112;DHT22;13092;51.996;4.458;2023-03-08T18:50:21;2.90;99.90
25112;DHT22;13092;51.996;4.458;2023-03-08T18:52:51;2.90;99.90
25112;DHT22;13092;51.996;4.458;2023-03-08T18:55:19;3.00;99.90
25112;DHT22;13092;51.996;4.458;2023-03-08T18:57:48;2.90;99.90
25112;DHT22;13092;51.996;4.458;2023-03-08T19:00:18;3.00;99.90
25112;DHT22;13092;51.996;4.458;2023-03-08T19:02:47;3.00;99.90
25112;DHT22;13092;51.996;4.458;2023-03-08T19:05:15;2.90;99.90
25112;DHT22;13092;51.996;4.458;2023-03-08T19:07:44;3.00;99.90
25112;DHT22;13092;51.996;4.458;2023-03-08T19:10:13;3.00;99.90
25112;DHT22;13092;51.996;4.458;2023-03-08T19:12:44;2.90;99.90
25112;DHT22;13092;51.996;4.458;2023-03-08T19:15:13;2.90;99.90
25112;DHT22;13092;51.996;4.458;2023-03-08T19:17:43;2.80;99.90
25112;DHT22;13092;51.996;4.458;2023-03-08T19:22:55;2.80;99.90